Time;durP1;ratioP1;P1;durP2;ratioP2;P2;SDS_P1;SDS_P2;PMS_P1;PMS_P2;Temp;Humidity;BMP_temperature;BMP_pressure;BME280_temperature;BME280_humidity;BME280_pressure;Samples;Min_cycle;Max_cycle;Signal;HPM_P1;HPM_P2
2021/12/09 00:00:29;;;;;;;3.28;1.67;;;15.60;61.30;;;;;;5033068;28;20133;-75
2021/12/09 00:02:57;;;;;;;2.65;1.58;;;15.60;61.40;;;;;;5013699;28;20398;-75
2021/12/09 00:05:24;;;;;;;3.60;1.80;;;15.00;60.70;;;;;;5013226;28;20064;-73
2021/12/09 00:07:52;;;;;;;3.45;1.40;;;15.50;61.10;;;;;;5013441;28;20479;-75
2021/12/09 00:10:19;;;;;;;2.45;1.40;;;15.50;55.60;;;;;;5013029;28;20129;-75
2021/12/09 00:12:46;;;;;;;2.60;1.40;;;15.50;61.30;;;;;;5012970;28;20061;-74
2021/12/09 00:15:13;;;;;;;3.17;1.42;;;15.40;61.10;;;;;;5013335;28;20546;-74
2021/12/09 00:17:41;;;;;;;4.28;1.42;;;15.30;61.10;;;;;;5032183;28;20053;-75
2021/12/09 00:20:09;;;;;;;3.15;1.50;;;15.60;62.00;;;;;;5032600;28;20192;-75
2021/12/09 00:22:36;;;;;;;2.22;1.40;;;16.10;62.70;;;;;;5032407;28;20056;-75
2021/12/09 00:25:03;;;;;;;2.13;1.33;;;15.40;60.90;;;;;;5049139;28;20145;-73
2021/12/09 00:27:29;;;;;;;4.22;1.58;;;15.50;55.60;;;;;;5032423;28;20140;-75
2021/12/09 00:29:56;;;;;;;3.45;1.50;;;15.50;61.40;;;;;;5032319;28;20154;-75
2021/12/09 00:32:23;;;;;;;1.77;1.30;;;16.30;61.70;;;;;;5032322;28;20569;-75
2021/12/09 00:34:52;;;;;;;3.80;1.60;;;15.50;60.90;;;;;;5033653;28;20133;-74
2021/12/09 00:37:24;;;;;;;2.17;1.60;;;15.50;61.30;;;;;;5033120;28;20475;-75
2021/12/09 00:39:51;;;;;;;2.03;1.58;;;15.50;61.00;;;;;;5033521;28;20087;-75
2021/12/09 00:42:18;;;;;;;2.45;1.50;;;15.50;61.20;;;;;;5032479;28;20159;-75
2021/12/09 00:44:44;;;;;;;2.65;1.65;;;15.00;60.90;;;;;;5032274;28;20219;-75
2021/12/09 00:47:11;;;;;;;3.03;1.67;;;15.50;55.50;;;;;;5032049;28;20067;-75
2021/12/09 00:49:38;;;;;;;3.33;1.75;;;15.50;61.40;;;;;;5031827;28;20132;-75
2021/12/09 00:52:06;;;;;;;3.97;1.70;;;15.10;60.90;;;;;;5031943;28;20490;-75
2021/12/09 00:54:33;;;;;;;3.22;1.58;;;15.50;61.20;;;;;;5031961;28;20133;-74
2021/12/09 00:57:00;;;;;;;2.95;1.77;;;15.40;60.80;;;;;;5031862;28;20136;-74
2021/12/09 00:59:27;;;;;;;1.85;1.50;;;15.60;61.20;;;;;;5032233;28;20124;-75
2021/12/09 01:01:53;;;;;;;4.13;1.90;;;15.50;55.30;;;;;;5031801;28;20168;-75
2021/12/09 01:04:20;;;;;;;2.95;1.55;;;15.40;55.20;;;;;;5032120;28;20554;-75
2021/12/09 01:06:47;;;;;;;3.05;2.08;;;15.50;60.90;;;;;;5031237;28;20140;-75
2021/12/09 01:09:15;;;;;;;2.83;1.50;;;15.50;55.30;;;;;;5048135;28;20129;-75
2021/12/09 01:11:42;;;;;;;3.22;1.58;;;16.30;61.30;;;;;;5031889;28;20478;-75
2021/12/09 01:14:08;;;;;;;2.15;1.40;;;15.50;55.40;;;;;;5048376;28;20686;-74
2021/12/09 01:16:35;;;;;;;2.58;1.60;;;15.40;60.50;;;;;;5031616;28;20140;-75
2021/12/09 01:19:02;;;;;;;2.85;1.60;;;15.60;61.10;;;;;;5031369;28;20128;-75
2021/12/09 01:21:28;;;;;;;2.95;1.60;;;15.50;60.90;;;;;;5031840;28;20085;-75
2021/12/09 01:23:55;;;;;;;2.88;1.92;;;15.30;61.10;;;;;;5048226;28;20474;-75
2021/12/09 01:26:26;;;;;;;3.55;1.70;;;15.80;61.10;;;;;;5031424;28;20137;-75
2021/12/09 01:28:59;;;;;;;2.90;1.60;;;15.60;61.00;;;;;;5031117;28;20085;-75
2021/12/09 01:31:29;;;;;;;2.38;1.60;;;15.40;61.50;;;;;;5031483;28;20103;-75
2021/12/09 01:34:01;;;;;;;3.17;1.40;;;15.20;60.80;;;;;;5031260;28;20450;-75
2021/12/09 01:36:28;;;;;;;2.67;1.65;;;15.40;61.20;;;;;;5031278;28;20115;-75
2021/12/09 01:38:54;;;;;;;2.25;1.60;;;15.40;55.40;;;;;;5031178;28;20076;-74
2021/12/09 01:41:23;;;;;;;2.63;1.50;;;15.40;60.90;;;;;;5032200;28;20081;-75
2021/12/09 01:43:50;;;;;;;2.65;1.70;;;14.70;60.70;;;;;;5030873;28;20148;-74
2021/12/09 01:46:17;;;;;;;2.28;1.52;;;15.00;60.50;;;;;;5032153;28;20132;-75
2021/12/09 01:48:45;;;;;;;2.58;1.77;;;15.50;61.10;;;;;;5031178;28;20056;-75
2021/12/09 01:51:12;;;;;;;3.17;1.70;;;15.40;55.30;;;;;;5031216;28;20132;-75
2021/12/09 01:53:39;;;;;;;2.65;1.58;;;15.40;60.80;;;;;;5031154;28;20585;-75
2021/12/09 01:56:08;;;;;;;2.72;1.60;;;15.70;61.00;;;;;;5030133;28;20132;-74
2021/12/09 01:58:37;;;;;;;1.98;1.30;;;15.60;61.10;;;;;;5031025;28;20057;-74
2021/12/09 02:01:04;;;;;;;6.22;1.80;;;15.60;61.10;;;;;;5030819;28;20049;-74
2021/12/09 02:03:31;;;;;;;2.65;1.40;;;15.50;61.80;;;;;;5031026;28;20414;-75
2021/12/09 02:05:58;;;;;;;2.47;1.70;;;15.50;60.80;;;;;;5030578;28;20171;-74
2021/12/09 02:08:25;;;;;;;4.43;1.90;;;15.40;55.10;;;;;;5030730;28;20538;-75
2021/12/09 02:10:52;;;;;;;2.85;1.70;;;15.40;62.00;;;;;;5031002;28;20140;-75
2021/12/09 02:13:18;;;;;;;2.45;1.70;;;15.50;60.90;;;;;;5030624;28;20484;-74
2021/12/09 02:15:47;;;;;;;3.92;1.60;;;15.50;61.40;;;;;;5030246;28;20081;-74
2021/12/09 02:18:13;;;;;;;2.42;1.60;;;15.40;60.50;;;;;;5047437;28;20085;-75
2021/12/09 02:20:42;;;;;;;3.22;1.85;;;15.40;60.70;;;;;;5030814;28;20549;-73
2021/12/09 02:23:11;;;;;;;2.72;1.70;;;15.40;60.50;;;;;;5030715;28;20140;-74
2021/12/09 02:25:38;;;;;;;2.10;1.60;;;15.50;61.30;;;;;;5030534;28;20046;-74
2021/12/09 02:28:05;;;;;;;2.67;1.83;;;15.40;60.50;;;;;;5030127;28;20052;-75
2021/12/09 02:30:32;;;;;;;2.78;1.70;;;15.50;61.80;;;;;;5047058;28;20132;-75
2021/12/09 02:32:58;;;;;;;2.47;1.58;;;15.40;55.10;;;;;;5030471;28;20153;-73
2021/12/09 02:35:25;;;;;;;2.58;1.80;;;15.10;60.60;;;;;;5030255;28;20088;-75
2021/12/09 02:37:53;;;;;;;2.60;1.70;;;15.50;61.50;;;;;;5030683;28;20136;-75
2021/12/09 02:40:20;;;;;;;2.33;1.60;;;15.40;55.10;;;;;;5047235;28;20077;-75
2021/12/09 02:42:47;;;;;;;1.80;1.52;;;14.70;61.20;;;;;;5030202;28;20132;-73
2021/12/09 02:45:14;;;;;;;2.42;1.50;;;15.40;60.70;;;;;;5049689;28;20064;-75
2021/12/09 02:47:41;;;;;;;2.78;1.50;;;14.70;60.40;;;;;;5034052;28;20136;-75
2021/12/09 02:50:09;;;;;;;3.00;1.65;;;15.40;55.20;;;;;;5034230;28;20554;-74
2021/12/09 02:52:35;;;;;;;2.97;1.70;;;15.50;60.80;;;;;;5034744;28;20487;-74
2021/12/09 02:55:07;;;;;;;2.80;1.70;;;15.40;55.20;;;;;;5034324;28;20053;-73
2021/12/09 02:57:34;;;;;;;1.73;1.50;;;15.30;61.20;;;;;;5034175;28;20144;-75
2021/12/09 03:00:01;;;;;;;2.38;1.63;;;15.00;60.40;;;;;;5034104;28;20129;-75
2021/12/09 03:02:28;;;;;;;3.05;1.67;;;15.40;55.20;;;;;;5050726;28;20136;-74
2021/12/09 03:04:58;;;;;;;2.28;1.60;;;15.30;60.70;;;;;;5034474;28;20103;-75
2021/12/09 03:07:28;;;;;;;2.42;1.75;;;14.90;60.50;;;;;;5050453;28;20426;-75
2021/12/09 03:09:59;;;;;;;2.83;1.65;;;15.50;60.70;;;;;;5034193;28;20049;-74
2021/12/09 03:12:28;;;;;;;2.10;1.58;;;15.40;60.80;;;;;;5034110;28;20057;-75
2021/12/09 03:14:55;;;;;;;1.90;1.45;;;15.20;60.80;;;;;;5034132;28;20087;-75
2021/12/09 03:17:22;;;;;;;2.90;1.50;;;15.40;60.60;;;;;;5033396;28;20141;-75
2021/12/09 03:19:48;;;;;;;3.42;1.80;;;15.50;61.00;;;;;;5033906;28;20132;-75
2021/12/09 03:22:15;;;;;;;2.15;1.60;;;15.30;61.10;;;;;;5033913;28;20528;-75
2021/12/09 03:24:42;;;;;;;2.97;1.92;;;15.20;60.60;;;;;;5050669;28;20683;-75
2021/12/09 03:27:09;;;;;;;3.35;2.10;;;15.20;60.40;;;;;;5033591;28;20049;-74
2021/12/09 03:29:38;;;;;;;2.33;1.80;;;15.30;61.70;;;;;;5033561;28;20052;-75
2021/12/09 03:32:07;;;;;;;3.10;1.70;;;15.30;60.50;;;;;;5033822;28;20060;-74
2021/12/09 03:34:34;;;;;;;2.13;1.50;;;14.90;60.70;;;;;;5033141;28;20137;-75
2021/12/09 03:37:02;;;;;;;2.53;1.55;;;14.50;60.20;;;;;;5033130;28;20132;-74
2021/12/09 03:39:31;;;;;;;4.53;1.60;;;15.40;59.00;;;;;;5033548;28;20473;-75
2021/12/09 03:41:58;;;;;;;2.40;1.67;;;15.20;62.20;;;;;;5033078;28;20088;-75
2021/12/09 03:44:26;;;;;;;3.80;1.70;;;15.30;60.80;;;;;;5033559;28;20135;-75
2021/12/09 03:46:56;;;;;;;3.03;1.70;;;15.40;60.80;;;;;;5033216;28;20053;-74
2021/12/09 03:49:23;;;;;;;2.47;1.92;;;15.10;60.60;;;;;;5033130;28;20072;-75
2021/12/09 03:51:50;;;;;;;2.83;2.00;;;15.40;60.60;;;;;;5033117;28;20061;-75
2021/12/09 03:54:17;;;;;;;3.28;1.70;;;15.40;60.60;;;;;;5035689;28;20151;-75
2021/12/09 03:56:44;;;;;;;2.08;1.38;;;15.10;60.50;;;;;;5040243;28;20129;-75
2021/12/09 03:59:11;;;;;;;2.92;1.80;;;15.60;61.00;;;;;;5042496;28;20485;-75
2021/12/09 04:01:38;;;;;;;2.65;1.80;;;15.30;60.90;;;;;;5043760;28;20053;-74
2021/12/09 04:04:06;;;;;;;2.35;1.50;;;15.90;61.20;;;;;;5042231;28;20136;-75
2021/12/09 04:06:33;;;;;;;3.50;1.90;;;15.30;60.40;;;;;;5059055;28;20140;-75
2021/12/09 04:09:00;;;;;;;2.97;1.80;;;15.30;55.10;;;;;;5043029;28;20136;-74
2021/12/09 04:11:27;;;;;;;3.40;1.85;;;15.00;60.60;;;;;;5042290;28;20410;-75
2021/12/09 04:13:54;;;;;;;4.03;2.00;;;15.30;55.10;;;;;;5044234;28;20126;-73
2021/12/09 04:16:21;;;;;;;2.17;1.75;;;15.30;60.70;;;;;;5052701;28;20102;-75
2021/12/09 04:18:48;;;;;;;4.25;1.80;;;15.30;60.70;;;;;;5052663;28;20496;-74
2021/12/09 04:21:16;;;;;;;2.80;1.80;;;15.40;61.00;;;;;;5052963;28;20564;-74
2021/12/09 04:23:42;;;;;;;2.05;1.60;;;15.30;55.00;;;;;;5045604;28;20096;-75
2021/12/09 04:26:09;;;;;;;2.70;1.80;;;14.50;60.20;;;;;;5032545;28;20132;-75
2021/12/09 04:28:36;;;;;;;3.13;1.80;;;15.30;60.70;;;;;;5032670;28;20111;-73
2021/12/09 04:31:03;;;;;;;2.20;1.80;;;16.00;61.60;;;;;;5032282;28;20128;-74
2021/12/09 04:33:30;;;;;;;3.08;1.83;;;15.20;60.60;;;;;;5032694;28;20140;-73
2021/12/09 04:35:57;;;;;;;2.75;1.70;;;14.90;60.50;;;;;;5032462;28;20053;-74
2021/12/09 04:38:25;;;;;;;3.05;1.98;;;15.30;60.60;;;;;;5032526;28;20141;-75
2021/12/09 04:40:52;;;;;;;2.60;1.90;;;15.10;60.50;;;;;;5031985;28;20136;-75
2021/12/09 04:43:19;;;;;;;2.10;1.58;;;14.60;60.60;;;;;;5032321;28;20570;-75
2021/12/09 04:45:46;;;;;;;2.33;1.80;;;15.10;60.60;;;;;;5032305;28;20057;-76
2021/12/09 04:48:12;;;;;;;3.10;2.10;;;15.00;60.90;;;;;;5032393;28;20053;-74
2021/12/09 04:50:39;;;;;;;3.15;1.70;;;15.00;60.90;;;;;;5031924;28;20049;-75
2021/12/09 04:53:06;;;;;;;4.30;1.90;;;14.90;60.90;;;;;;5032329;28;20136;-75
2021/12/09 04:55:34;;;;;;;2.95;1.90;;;14.90;60.50;;;;;;5031686;28;20131;-75
2021/12/09 04:58:01;;;;;;;2.00;1.60;;;15.00;61.00;;;;;;5031471;28;20132;-76
2021/12/09 05:00:29;;;;;;;4.10;1.95;;;14.90;60.90;;;;;;5032103;28;20133;-75
2021/12/09 05:03:04;;;;;;;3.15;1.90;;;14.80;60.80;;;;;;5032114;28;20065;-75
2021/12/09 05:05:33;;;;;;;2.85;1.95;;;14.90;60.70;;;;;;5031912;28;20076;-75
2021/12/09 05:08:00;;;;;;;3.78;1.80;;;14.30;60.60;;;;;;5031224;28;20136;-75
2021/12/09 05:10:27;;;;;;;2.40;2.00;;;14.00;60.60;;;;;;5031712;28;20050;-75
2021/12/09 05:12:55;;;;;;;2.38;1.90;;;14.80;61.00;;;;;;5031638;28;20136;-75
2021/12/09 05:15:22;;;;;;;3.58;1.98;;;14.70;61.20;;;;;;5031106;28;20053;-75
2021/12/09 05:17:49;;;;;;;3.30;2.00;;;14.50;61.00;;;;;;5031664;28;20140;-76
2021/12/09 05:20:16;;;;;;;3.40;1.88;;;;;;;;;;5031901;28;20084;-74
2021/12/09 05:22:42;;;;;;;3.10;2.00;;;14.90;61.50;;;;;;5031760;28;20136;-75
2021/12/09 05:25:09;;;;;;;2.80;2.13;;;14.40;61.20;;;;;;5031599;28;20713;-76
2021/12/09 05:27:38;;;;;;;2.63;2.00;;;14.60;61.10;;;;;;5032373;28;20053;-75
2021/12/09 05:30:12;;;;;;;2.72;1.80;;;14.50;61.30;;;;;;5032204;28;20052;-75
2021/12/09 05:32:37;;;;;;;3.08;1.90;;;14.60;61.50;;;;;;5011839;28;20054;-75
2021/12/09 05:35:05;;;;;;;3.00;2.00;;;14.60;61.20;;;;;;5011764;28;20060;-75
2021/12/09 05:37:32;;;;;;;3.28;1.88;;;14.50;61.50;;;;;;5011461;28;20513;-74
2021/12/09 05:39:59;;;;;;;4.15;1.95;;;14.50;61.50;;;;;;5011562;28;20148;-73
2021/12/09 05:42:26;;;;;;;4.18;2.08;;;14.60;61.30;;;;;;5011593;28;20462;-76
2021/12/09 05:44:53;;;;;;;2.38;1.83;;;14.40;61.30;;;;;;5011363;28;20138;-75
2021/12/09 05:47:22;;;;;;;2.67;2.22;;;14.40;61.60;;;;;;5017105;28;20151;-75
2021/12/09 05:49:49;;;;;;;2.22;1.80;;;14.00;61.40;;;;;;5030658;28;20819;-75
2021/12/09 05:52:16;;;;;;;3.25;2.10;;;14.20;61.20;;;;;;5031005;28;20501;-75
2021/12/09 05:54:43;;;;;;;3.05;2.00;;;14.40;61.50;;;;;;5031227;28;20067;-75
2021/12/09 05:57:09;;;;;;;2.80;2.00;;;14.40;61.60;;;;;;5030664;28;20132;-75
2021/12/09 05:59:40;;;;;;;3.28;1.90;;;14.40;61.40;;;;;;5030510;28;20056;-72
2021/12/09 06:02:07;;;;;;;2.90;1.98;;;14.40;61.70;;;;;;5030731;28;20055;-75
2021/12/09 06:04:36;;;;;;;3.28;1.90;;;14.30;61.50;;;;;;5029632;28;20052;-75
2021/12/09 06:07:03;;;;;;;3.33;2.13;;;14.30;61.60;;;;;;5030104;28;20144;-75
2021/12/09 06:09:29;;;;;;;2.72;1.90;;;14.40;61.40;;;;;;5030625;28;20057;-75
2021/12/09 06:11:56;;;;;;;3.40;2.22;;;14.40;62.90;;;;;;5030672;28;20177;-75
2021/12/09 06:14:23;;;;;;;2.60;1.92;;;14.60;61.80;;;;;;5030468;28;20152;-75
2021/12/09 06:16:50;;;;;;;3.30;2.13;;;14.30;61.70;;;;;;5030472;28;20089;-75
2021/12/09 06:19:16;;;;;;;3.95;1.90;;;14.40;61.70;;;;;;5029971;28;20132;-75
2021/12/09 06:21:44;;;;;;;3.05;2.05;;;14.30;61.40;;;;;;5030656;28;20492;-75
2021/12/09 06:24:11;;;;;;;2.90;1.98;;;14.30;56.40;;;;;;5030909;28;20140;-75
2021/12/09 06:26:38;;;;;;;4.72;2.53;;;14.40;61.70;;;;;;5030413;28;20128;-75
2021/12/09 06:29:07;;;;;;;2.15;1.73;;;13.70;61.20;;;;;;5047238;28;20409;-75
2021/12/09 06:31:34;;;;;;;3.70;2.10;;;14.50;60.70;;;;;;5030257;28;20049;-75
2021/12/09 06:34:00;;;;;;;3.42;1.90;;;14.50;61.30;;;;;;5030851;28;20156;-75
2021/12/09 06:36:27;;;;;;;4.43;2.40;;;14.50;61.60;;;;;;5030194;28;20128;-75
2021/12/09 06:38:55;;;;;;;4.10;2.15;;;14.50;61.60;;;;;;5029920;28;20049;-75
2021/12/09 06:41:22;;;;;;;3.15;1.98;;;14.60;61.40;;;;;;5029926;28;20460;-75
2021/12/09 06:43:48;;;;;;;2.60;1.90;;;14.60;62.10;;;;;;5030509;28;20064;-75
2021/12/09 06:46:15;;;;;;;3.17;2.00;;;14.70;61.80;;;;;;5030490;28;20132;-75
2021/12/09 06:48:42;;;;;;;3.65;2.20;;;14.60;61.30;;;;;;5030421;28;20144;-75
2021/12/09 06:51:09;;;;;;;3.75;2.08;;;15.10;61.60;;;;;;5031505;28;20056;-75
2021/12/09 06:53:38;;;;;;;3.58;2.03;;;14.60;61.30;;;;;;5026917;28;20128;-74
2021/12/09 06:56:06;;;;;;;3.10;1.90;;;14.70;62.40;;;;;;5030099;28;20081;-75
2021/12/09 06:58:33;;;;;;;3.88;1.92;;;14.10;61.00;;;;;;5030305;28;20133;-75
2021/12/09 07:01:00;;;;;;;3.15;1.90;;;14.10;60.90;;;;;;5030392;28;20124;-74
2021/12/09 07:03:27;;;;;;;3.92;1.80;;;14.50;61.60;;;;;;5030475;28;20459;-74
2021/12/09 07:05:54;;;;;;;3.58;2.17;;;14.60;61.40;;;;;;5030339;28;20136;-76
2021/12/09 07:08:21;;;;;;;3.38;1.88;;;14.70;61.10;;;;;;5027622;28;20056;-75
2021/12/09 07:10:49;;;;;;;3.55;1.90;;;14.80;61.10;;;;;;5028528;28;20103;-74
2021/12/09 07:13:17;;;;;;;3.67;2.13;;;14.70;54.90;;;;;;5029645;28;20143;-75
2021/12/09 07:15:43;;;;;;;2.25;1.92;;;15.60;62.20;;;;;;5029451;28;20089;-74
2021/12/09 07:18:10;;;;;;;5.18;1.90;;;14.80;61.20;;;;;;5029647;28;20133;-75
2021/12/09 07:20:37;;;;;;;3.13;1.98;;;14.80;57.80;;;;;;5029254;28;20535;-76
2021/12/09 07:23:03;;;;;;;3.05;2.17;;;14.50;61.50;;;;;;5029863;28;20056;-75
2021/12/09 07:25:30;;;;;;;3.22;1.90;;;14.70;55.50;;;;;;5027311;28;20144;-75
2021/12/09 07:27:57;;;;;;;2.70;1.70;;;14.00;61.00;;;;;;5029512;28;20136;-75
2021/12/09 07:30:26;;;;;;;4.43;1.90;;;14.80;61.40;;;;;;5031033;28;20073;-75
2021/12/09 07:32:52;;;;;;;3.45;2.03;;;15.00;61.50;;;;;;5035964;28;20088;-75
2021/12/09 07:35:19;;;;;;;4.10;2.10;;;14.80;55.60;;;;;;5033532;28;20133;-74
2021/12/09 07:37:46;;;;;;;6.28;2.53;;;14.40;61.10;;;;;;5033350;28;20140;-75
2021/12/09 07:40:14;;;;;;;5.28;2.33;;;14.80;55.00;;;;;;5033227;28;20502;-74
2021/12/09 07:42:41;;;;;;;7.45;2.47;;;14.80;55.40;;;;;;5033301;28;20413;-74
2021/12/09 07:45:09;;;;;;;6.57;2.60;;;15.00;61.50;;;;;;5018828;28;20136;-75
2021/12/09 07:47:37;;;;;;;4.55;1.90;;;14.70;61.00;;;;;;5022122;28;20132;-74
2021/12/09 07:50:05;;;;;;;3.35;2.17;;;14.90;61.00;;;;;;5033387;28;20485;-75
2021/12/09 07:52:31;;;;;;;3.63;2.10;;;14.70;55.20;;;;;;5033074;28;20053;-74
2021/12/09 07:54:58;;;;;;;4.22;2.20;;;14.70;61.50;;;;;;5033301;28;20500;-74
2021/12/09 07:57:25;;;;;;;4.45;2.05;;;14.30;60.80;;;;;;5032718;28;20128;-75
2021/12/09 07:59:52;;;;;;;3.83;2.10;;;;;;;;;;5032708;28;20144;-74
2021/12/09 08:02:18;;;;;;;3.65;2.20;;;14.70;61.10;;;;;;5033053;28;20140;-75
2021/12/09 08:04:46;;;;;;;3.92;2.17;;;14.50;61.00;;;;;;5032526;28;20118;-75
2021/12/09 08:07:13;;;;;;;3.97;2.10;;;14.60;61.20;;;;;;5033811;28;20048;-75
2021/12/09 08:09:40;;;;;;;3.60;2.00;;;14.40;60.80;;;;;;5032622;28;20132;-75
2021/12/09 08:12:07;;;;;;;2.65;1.80;;;14.00;61.20;;;;;;5032724;28;20136;-76
2021/12/09 08:14:34;;;;;;;4.00;2.35;;;14.60;55.30;;;;;;5032916;28;20136;-75
2021/12/09 08:17:12;;;;;;;2.78;1.77;;;14.10;60.70;;;;;;5032327;28;20064;-75
2021/12/09 08:19:39;;;;;;;2.80;1.95;;;13.60;60.60;;;;;;5032470;28;20084;-75
2021/12/09 08:22:08;;;;;;;3.47;2.00;;;14.60;61.20;;;;;;5032408;28;20128;-75
2021/12/09 08:24:35;;;;;;;3.90;2.15;;;14.10;60.70;;;;;;5032986;28;20064;-75
2021/12/09 08:27:01;;;;;;;3.72;2.10;;;14.60;61.10;;;;;;5032380;28;20083;-75
2021/12/09 08:29:28;;;;;;;3.13;2.03;;;14.50;61.00;;;;;;5032944;28;20156;-74
2021/12/09 08:31:55;;;;;;;4.47;1.90;;;14.60;61.20;;;;;;5032080;28;20140;-75
2021/12/09 08:34:21;;;;;;;3.65;2.05;;;14.60;61.90;;;;;;5032380;28;20132;-75
2021/12/09 08:36:51;;;;;;;3.95;2.20;;;13.90;60.90;;;;;;5034247;28;20483;-73
2021/12/09 08:39:19;;;;;;;2.60;1.85;;;14.60;60.90;;;;;;5032104;28;20136;-75
2021/12/09 08:41:46;;;;;;;3.53;2.10;;;14.20;60.80;;;;;;5032612;28;20136;-75
2021/12/09 08:44:13;;;;;;;4.50;2.10;;;14.60;61.40;;;;;;5033109;28;20041;-74
2021/12/09 08:46:40;;;;;;;3.70;1.88;;;14.60;60.90;;;;;;5030224;28;20487;-75
2021/12/09 08:49:08;;;;;;;3.55;2.00;;;14.60;61.00;;;;;;5031961;28;20140;-75
2021/12/09 08:51:35;;;;;;;3.20;2.00;;;;;;;;;;5032189;28;20055;-74
2021/12/09 08:54:01;;;;;;;2.90;2.08;;;14.20;61.00;;;;;;5031802;28;20118;-74
2021/12/09 08:56:29;;;;;;;2.95;1.95;;;14.20;61.00;;;;;;5032086;28;20461;-74
2021/12/09 08:58:56;;;;;;;2.65;2.00;;;14.60;61.40;;;;;;5032093;28;20144;-74
2021/12/09 09:01:23;;;;;;;2.63;1.83;;;14.50;61.10;;;;;;5031885;28;20132;-73
2021/12/09 09:03:50;;;;;;;3.35;2.10;;;14.10;61.10;;;;;;5031164;28;20148;-74
2021/12/09 09:06:16;;;;;;;2.97;1.80;;;14.80;61.40;;;;;;5030938;28;20128;-74
2021/12/09 09:08:43;;;;;;;3.55;1.98;;;14.50;60.90;;;;;;5031586;28;20073;-73
2021/12/09 09:11:10;;;;;;;3.83;1.80;;;14.60;61.20;;;;;;5031882;28;20051;-74
2021/12/09 09:13:40;;;;;;;3.53;1.90;;;14.50;61.20;;;;;;5031841;28;20113;-74
2021/12/09 09:16:06;;;;;;;2.85;1.70;;;14.30;61.00;;;;;;5031627;28;20506;-74
2021/12/09 09:18:33;;;;;;;2.38;1.60;;;14.50;61.10;;;;;;5031333;28;20132;-75
2021/12/09 09:21:00;;;;;;;2.63;1.70;;;15.10;61.50;;;;;;5030653;28;20084;-75
2021/12/09 09:23:26;;;;;;;2.83;1.77;;;14.40;61.10;;;;;;5031676;28;20136;-75
2021/12/09 09:25:53;;;;;;;2.90;1.90;;;14.50;61.20;;;;;;5031416;28;20132;-75
2021/12/09 09:28:20;;;;;;;3.20;2.00;;;14.50;61.00;;;;;;5036219;28;20059;-75
2021/12/09 09:30:53;;;;;;;4.65;2.08;;;14.50;61.20;;;;;;5036955;28;20549;-75
2021/12/09 09:33:20;;;;;;;2.88;1.75;;;14.10;61.00;;;;;;5038925;28;20063;-73
2021/12/09 09:35:47;;;;;;;3.45;1.88;;;13.80;61.40;;;;;;5040752;28;20128;-75
2021/12/09 09:38:14;;;;;;;4.13;1.90;;;15.00;61.20;;;;;;5039979;28;20474;-74
2021/12/09 09:40:45;;;;;;;3.35;1.80;;;14.40;60.80;;;;;;5036741;28;20128;-75
2021/12/09 09:43:27;;;;;;;2.95;1.70;;;13.80;61.00;;;;;;5040678;28;20049;-75
2021/12/09 09:45:55;;;;;;;2.58;1.70;;;14.50;61.30;;;;;;5065398;28;20045;-75
2021/12/09 09:48:22;;;;;;;2.75;2.13;;;14.40;61.00;;;;;;5050732;28;20060;-75
2021/12/09 09:50:50;;;;;;;3.33;1.88;;;14.40;60.90;;;;;;5055663;28;20402;-75
2021/12/09 09:53:17;;;;;;;2.92;2.03;;;14.40;55.30;;;;;;5041113;28;20053;-74
2021/12/09 09:55:46;;;;;;;2.47;1.88;;;14.00;61.00;;;;;;5056202;28;20133;-74
2021/12/09 09:58:13;;;;;;;2.85;1.90;;;14.50;61.30;;;;;;5040459;28;20052;-75
2021/12/09 10:00:39;;;;;;;2.70;1.80;;;14.30;61.00;;;;;;5038843;28;20127;-75
2021/12/09 10:03:16;;;;;;;3.40;2.30;;;14.10;60.90;;;;;;5037117;28;20127;-75
2021/12/09 10:05:44;;;;;;;4.75;1.90;;;14.60;57.70;;;;;;5055192;28;20702;-74
2021/12/09 10:08:12;;;;;;;3.15;2.00;;;14.40;55.80;;;;;;5030570;28;20057;-75
2021/12/09 10:10:39;;;;;;;3.22;1.85;;;13.80;60.70;;;;;;5030765;28;20053;-73
2021/12/09 10:13:07;;;;;;;2.70;1.70;;;14.30;54.50;;;;;;5030315;28;20050;-74
2021/12/09 10:15:36;;;;;;;3.13;1.77;;;14.90;61.40;;;;;;5031179;28;20084;-73
2021/12/09 10:18:05;;;;;;;2.90;1.73;;;14.30;60.90;;;;;;5030787;28;20139;-75
2021/12/09 10:20:48;;;;;;;8.05;2.33;;;14.40;61.30;;;;;;5030985;28;20068;-75
2021/12/09 10:23:29;;;;;;;4.63;1.80;;;14.30;60.90;;;;;;5030672;28;20140;-74
2021/12/09 10:26:17;;;;;;;5.43;1.95;;;14.20;60.80;;;;;;5030611;28;20092;-75
2021/12/09 10:28:49;;;;;;;3.53;1.80;;;14.40;61.10;;;;;;5031767;28;20056;-74
2021/12/09 10:31:17;;;;;;;4.20;1.67;;;14.20;60.70;;;;;;5029990;28;20088;-73
2021/12/09 10:34:09;;;;;;;8.38;2.10;;;14.40;60.80;;;;;;5030153;28;20379;-74
2021/12/09 10:36:47;;;;;;;2.55;1.63;;;14.50;61.10;;;;;;5030438;28;20406;-74
2021/12/09 10:39:15;;;;;;;5.53;2.00;;;15.20;61.30;;;;;;5030957;28;20144;-73
2021/12/09 10:41:42;;;;;;;2.90;1.90;;;14.30;60.90;;;;;;5030536;28;20054;-74
2021/12/09 10:44:09;;;;;;;4.88;1.70;;;14.50;60.60;;;;;;5030468;28;20132;-74
2021/12/09 10:46:52;;;;;;;3.03;2.00;;;14.60;60.60;;;;;;5030384;28;20137;-76
2021/12/09 10:49:20;;;;;;;6.80;2.03;;;14.50;61.50;;;;;;5030219;28;20440;-74
2021/12/09 10:51:57;;;;;;;3.55;1.85;;;14.60;60.90;;;;;;5030140;28;20053;-74
2021/12/09 10:54:33;;;;;;;6.25;2.42;;;14.70;60.80;;;;;;5030596;28;20080;-73
2021/12/09 10:57:24;;;;;;;3.70;1.95;;;14.80;60.80;;;;;;5030391;28;20049;-74
2021/12/09 10:59:51;;;;;;;6.43;2.05;;;14.70;60.60;;;;;;5030740;28;20140;-74
2021/12/09 11:02:18;;;;;;;6.07;1.95;;;14.70;60.50;;;;;;5030139;28;20045;-74
2021/12/09 11:04:58;;;;;;;3.45;1.80;;;14.80;60.60;;;;;;5030460;28;20049;-74
2021/12/09 11:07:30;;;;;;;3.75;1.90;;;14.80;60.40;;;;;;5035028;28;20140;-74
2021/12/09 11:10:20;;;;;;;8.18;2.33;;;14.80;60.30;;;;;;5035256;28;20077;-74
2021/12/09 11:12:51;;;;;;;2.50;1.52;;;14.20;60.20;;;;;;5033716;28;20132;-74
2021/12/09 11:15:19;;;;;;;3.55;1.80;;;14.90;60.30;;;;;;5034530;28;20222;-74
2021/12/09 11:17:49;;;;;;;3.63;1.80;;;14.80;60.20;;;;;;5033730;28;20053;-74
2021/12/09 11:20:16;;;;;;;2.47;1.70;;;;;;;;;;5033683;28;20506;-75
2021/12/09 11:22:45;;;;;;;3.33;1.80;;;14.90;59.90;;;;;;5041249;28;20076;-75
2021/12/09 11:25:33;;;;;;;3.85;1.65;;;14.90;60.10;;;;;;5042308;28;20057;-75
2021/12/09 11:28:10;;;;;;;3.38;1.83;;;14.80;60.10;;;;;;5041527;28;20053;-75
2021/12/09 11:31:11;;;;;;;3.72;2.00;;;14.80;60.10;;;;;;5039290;28;20412;-75
2021/12/09 11:33:42;;;;;;;3.05;1.58;;;14.10;59.90;;;;;;5041154;28;20046;-75
2021/12/09 11:36:15;;;;;;;4.50;2.22;;;14.80;54.20;;;;;;5053184;28;20355;-73
2021/12/09 11:39:11;;;;;;;5.10;1.83;;;14.80;60.10;;;;;;5047421;28;20057;-74
2021/12/09 11:41:40;;;;;;;4.15;1.95;;;14.50;55.10;;;;;;5032089;28;20045;-74
2021/12/09 11:44:08;;;;;;;4.15;1.75;;;14.90;60.30;;;;;;5033165;28;20505;-74
2021/12/09 11:46:36;;;;;;;5.18;1.80;;;14.90;60.00;;;;;;5032939;28;20081;-74
2021/12/09 11:49:03;;;;;;;4.75;1.60;;;14.80;60.10;;;;;;5033631;28;20079;-74
2021/12/09 11:51:30;;;;;;;5.78;2.70;;;14.90;60.40;;;;;;5033702;28;20054;-74
2021/12/09 11:53:58;;;;;;;4.13;2.08;;;15.10;60.80;;;;;;5038350;28;20140;-74
2021/12/09 11:56:33;;;;;;;6.97;2.20;;;14.90;59.90;;;;;;5059478;28;20080;-74
2021/12/09 12:07:33;;;;;;;;;;;14.90;54.40;;;;;;5033030;28;20046;-75
2021/12/09 12:12:56;;;;;;;3.50;2.17;;;14.80;60.50;;;;;;5032877;28;20049;-73
2021/12/09 12:15:29;;;;;;;4.43;2.33;;;15.00;58.70;;;;;;5033192;28;20061;-74
2021/12/09 12:18:26;;;;;;;4.47;2.13;;;14.90;62.00;;;;;;5032185;28;20085;-73
2021/12/09 12:21:06;;;;;;;3.95;2.20;;;14.80;60.10;;;;;;5032724;28;20053;-74
2021/12/09 12:23:39;;;;;;;5.40;2.03;;;14.90;54.40;;;;;;5032934;28;20479;-74
2021/12/09 12:29:05;;;;;;;4.90;2.05;;;14.90;60.30;;;;;;5032747;28;20056;-74
2021/12/09 12:32:07;;;;;;;5.53;2.33;;;14.40;60.10;;;;;;5032797;28;20061;-73
2021/12/09 12:35:13;;;;;;;4.28;2.10;;;15.20;60.40;;;;;;5033760;28;20052;-74
2021/12/09 12:40:33;;;;;;;3.60;2.08;;;14.20;59.80;;;;;;5018916;28;20041;-74
2021/12/09 12:43:03;;;;;;;2.30;1.73;;;15.00;60.40;;;;;;5031622;28;20052;-74
2021/12/09 12:45:52;;;;;;;5.05;2.22;;;15.00;60.30;;;;;;5031997;28;20052;-74
2021/12/09 12:49:01;;;;;;;5.45;2.13;;;14.80;60.20;;;;;;5027908;28;20471;-73
2021/12/09 12:51:31;;;;;;;3.53;1.77;;;;;;;;;;4994801;28;20140;-74
2021/12/09 12:53:59;;;;;;;2.50;1.80;;;14.90;53.90;;;;;;5032142;28;20396;-74
2021/12/09 12:56:27;;;;;;;3.72;2.17;;;14.90;60.10;;;;;;5031914;28;20045;-73
2021/12/09 12:59:29;;;;;;;2.90;1.95;;;14.70;60.10;;;;;;5033383;28;20491;-73
2021/12/09 13:05:08;;;;;;;4.32;1.98;;;14.90;60.20;;;;;;5001923;28;20061;-73
2021/12/09 13:08:01;;;;;;;3.30;1.75;;;15.00;61.20;;;;;;5031916;28;20084;-73
2021/12/09 13:10:33;;;;;;;3.22;1.70;;;14.40;59.70;;;;;;5031991;28;20046;-74
2021/12/09 13:13:12;;;;;;;3.85;1.92;;;14.90;60.10;;;;;;5031689;28;20049;-74
2021/12/09 13:15:50;;;;;;;3.10;1.70;;;14.40;59.60;;;;;;5031837;28;20513;-74
2021/12/09 13:18:47;;;;;;;2.60;1.88;;;14.20;59.90;;;;;;5031848;28;20053;-74